Time;durP1;ratioP1;P1;durP2;ratioP2;P2;SDS_P1;SDS_P2;PMS_P1;PMS_P2;Temp;Humidity;BMP_temperature;BMP_pressure;BME280_temperature;BME280_humidity;BME280_pressure;Samples;Min_cycle;Max_cycle;Signal;HPM_P1;HPM_P2
2023/03/24 00:00:00;;;;;;;21.02;11.68;;;;;;;6.08;100.00;100762.50;5029808;28;20618;-71
2023/03/24 00:02:27;;;;;;;16.73;12.40;;;;;;;5.94;100.00;100756.53;5029461;28;20038;-70
2023/03/24 00:04:57;;;;;;;18.27;12.15;;;;;;;5.98;100.00;100756.84;5028109;28;20037;-71
2023/03/24 00:07:23;;;;;;;;;;;;;;;6.05;100.00;100752.94;5030031;28;20055;-71
2023/03/24 00:09:49;;;;;;;16.38;11.15;;;;;;;6.08;100.00;100752.25;5029510;28;20007;-70
2023/03/24 00:12:17;;;;;;;14.52;10.50;;;;;;;6.10;100.00;100733.59;5029226;28;20113;-71
2023/03/24 00:14:45;;;;;;;17.50;10.50;;;;;;;6.17;100.00;100733.97;5029473;28;20030;-71
2023/03/24 00:17:16;;;;;;;15.63;10.88;;;;;;;6.13;100.00;100703.03;5028881;28;20029;-71
2023/03/24 00:19:44;;;;;;;17.08;11.13;;;;;;;6.44;100.00;100737.25;5029461;28;20077;-70
2023/03/24 00:22:13;;;;;;;14.15;10.88;;;;;;;6.42;100.00;100734.59;5029023;28;20045;-71
2023/03/24 00:24:39;;;;;;;15.90;9.65;;;;;;;6.44;100.00;100742.38;5026388;28;20038;-71
2023/03/24 00:27:06;;;;;;;11.90;9.60;;;;;;;6.17;100.00;100752.81;5032134;28;20018;-71
2023/03/24 00:29:32;;;;;;;16.05;13.00;;;;;;;5.82;100.00;100700.31;5031357;28;20479;-71
2023/03/24 00:31:58;;;;;;;10.77;7.95;;;;;;;5.69;100.00;100737.09;5030959;28;20468;-71
2023/03/24 00:34:24;;;;;;;15.40;10.38;;;;;;;5.30;100.00;100723.63;5031457;28;20124;-71
2023/03/24 00:36:50;;;;;;;16.48;10.80;;;;;;;5.34;100.00;100728.13;5031538;28;20029;-71
2023/03/24 00:39:17;;;;;;;19.35;9.80;;;;;;;5.23;100.00;100726.59;5031645;28;20025;-71
2023/03/24 00:41:45;;;;;;;23.65;11.57;;;;;;;5.18;100.00;100713.50;5031488;28;20514;-72
2023/03/24 00:44:19;;;;;;;16.25;10.20;;;;;;;5.02;100.00;100681.84;5031189;28;20030;-72
2023/03/24 00:46:54;;;;;;;14.98;9.13;;;;;;;5.28;100.00;100731.22;5031200;28;20034;-72
2023/03/24 00:49:40;;;;;;;14.73;8.60;;;;;;;5.33;100.00;100732.38;5031376;28;20029;-72
2023/03/24 00:52:08;;;;;;;13.70;9.68;;;;;;;5.37;100.00;100735.13;5031174;28;20029;-71
2023/03/24 00:54:35;;;;;;;15.20;10.38;;;;;;;5.37;100.00;100728.34;5030992;28;20029;-72
2023/03/24 00:57:02;;;;;;;14.77;9.70;;;;;;;5.26;100.00;100713.97;5031287;28;20129;-72
2023/03/24 00:59:28;;;;;;;14.32;9.55;;;;;;;5.14;100.00;100702.19;5046375;28;20044;-73
2023/03/24 01:01:55;;;;;;;10.68;8.20;;;;;;;5.11;100.00;100703.66;5030969;28;20029;-73
2023/03/24 01:04:25;;;;;;;9.15;7.03;;;;;;;5.08;100.00;100706.03;5031007;28;20036;-73
2023/03/24 01:06:51;;;;;;;8.88;7.00;;;;;;;5.33;100.00;100728.91;5030620;28;20034;-73
2023/03/24 01:09:20;;;;;;;11.98;7.50;;;;;;;5.20;100.00;100706.81;5030528;28;20535;-73
2023/03/24 01:11:46;;;;;;;11.15;8.32;;;;;;;5.32;100.00;100725.50;5030970;28;20032;-73
2023/03/24 01:14:11;;;;;;;13.52;9.27;;;;;;;5.39;100.00;100731.88;5030806;28;20610;-73
2023/03/24 01:16:37;;;;;;;14.43;9.50;;;;;;;5.34;100.00;100717.91;5030162;28;20048;-73
2023/03/24 01:19:03;;;;;;;16.30;10.55;;;;;;;5.22;100.00;100714.56;5029902;28;20432;-73
2023/03/24 01:21:30;;;;;;;18.60;11.48;;;;;;;4.95;100.00;100728.28;5028057;28;20049;-73
2023/03/24 01:23:56;;;;;;;18.08;11.38;;;;;;;4.63;100.00;100682.75;5030426;28;20033;-73
2023/03/24 01:26:22;;;;;;;37.67;11.73;;;;;;;4.73;100.00;100690.22;5030330;28;20445;-73
2023/03/24 01:28:48;;;;;;;35.35;11.00;;;;;;;4.84;100.00;100734.41;5030789;28;20108;-73
2023/03/24 01:31:13;;;;;;;34.72;10.65;;;;;;;4.72;100.00;100738.72;5030262;28;20036;-73
2023/03/24 01:33:39;;;;;;;30.55;10.88;;;;;;;4.54;100.00;100729.94;5030473;28;20163;-73
2023/03/24 01:36:06;;;;;;;36.88;11.73;;;;;;;4.41;100.00;100731.59;5030386;28;20091;-73
2023/03/24 01:38:31;;;;;;;38.83;11.63;;;;;;;4.33;100.00;100739.63;5029707;28;20044;-72
2023/03/24 01:40:57;;;;;;;31.85;11.63;;;;;;;4.08;100.00;100677.50;5028910;28;20025;-73
2023/03/24 01:43:29;;;;;;;13.30;9.40;;;;;;;4.00;100.00;100694.84;5030232;28;20086;-73
2023/03/24 01:46:12;;;;;;;20.65;9.82;;;;;;;4.09;100.00;100723.56;5030223;28;20034;-72
2023/03/24 01:49:05;;;;;;;14.32;8.70;;;;;;;3.85;100.00;100722.78;5030149;28;20514;-73
2023/03/24 01:51:35;;;;;;;16.52;9.43;;;;;;;3.73;100.00;100713.50;5030287;28;20483;-73
2023/03/24 01:54:10;;;;;;;13.55;10.38;;;;;;;3.93;100.00;100713.97;5029868;28;20060;-73
2023/03/24 01:56:41;;;;;;;27.77;9.52;;;;;;;4.14;100.00;100711.09;5030365;28;20033;-73
2023/03/24 01:59:14;;;;;;;24.90;8.35;;;;;;;4.09;100.00;100692.00;5030167;28;20025;-73
2023/03/24 02:01:40;;;;;;;18.75;8.65;;;;;;;4.18;100.00;100702.84;5029982;28;20040;-72
2023/03/24 02:04:07;;;;;;;22.77;9.75;;;;;;;4.24;100.00;100704.91;5029824;28;20021;-73
2023/03/24 02:06:35;;;;;;;14.48;8.20;;;;;;;4.33;100.00;100711.53;5030146;28;20545;-73
2023/03/24 02:09:01;;;;;;;22.40;8.77;;;;;;;3.99;100.00;100629.22;5029725;28;20021;-72
2023/03/24 02:11:30;;;;;;;57.15;9.85;;;;;;;4.30;100.00;100697.66;5028817;28;20048;-72
2023/03/24 02:13:56;;;;;;;29.83;8.98;;;;;;;4.09;100.00;100661.34;5029303;28;20018;-72
2023/03/24 02:16:40;;;;;;;42.33;9.98;;;;;;;4.37;100.00;100704.94;5029971;28;20467;-72
2023/03/24 02:19:47;;;;;;;22.67;8.75;;;;;;;4.43;100.00;100700.22;5029761;28;20598;-71
2023/03/24 02:22:21;;;;;;;24.83;8.00;;;;;;;4.41;100.00;100701.81;5029310;28;20091;-71
2023/03/24 02:25:17;;;;;;;26.95;8.38;;;;;;;4.35;100.00;100702.28;5029704;28;20037;-72
2023/03/24 02:28:08;;;;;;;19.88;8.23;;;;;;;4.38;100.00;100699.91;5031083;28;20497;-71
2023/03/24 02:31:10;;;;;;;16.15;7.95;;;;;;;4.33;100.00;100703.84;5033591;28;20479;-71
2023/03/24 02:33:53;;;;;;;13.75;8.10;;;;;;;4.30;100.00;100713.91;5033809;28;20423;-72
2023/03/24 02:36:43;;;;;;;14.10;7.38;;;;;;;4.24;100.00;100717.69;5033895;28;20033;-72
2023/03/24 02:39:15;;;;;;;8.13;6.40;;;;;;;4.21;100.00;100718.38;5033422;28;20521;-72
2023/03/24 02:42:18;;;;;;;8.35;6.57;;;;;;;3.83;100.00;100666.50;5033972;28;20026;-71
2023/03/24 02:44:55;;;;;;;9.02;6.72;;;;;;;4.01;100.00;100720.50;4991708;28;20034;-72
2023/03/24 02:47:30;;;;;;;11.10;7.70;;;;;;;3.54;100.00;100672.22;4991354;28;20053;-72
2023/03/24 02:50:16;;;;;;;11.25;7.18;;;;;;;3.53;100.00;100732.56;4991667;28;20038;-72
2023/03/24 02:52:58;;;;;;;9.38;7.00;;;;;;;3.60;100.00;100735.53;4991601;28;20448;-72
2023/03/24 02:55:39;;;;;;;10.55;7.57;;;;;;;3.64;100.00;100729.88;4991619;28;20042;-71
2023/03/24 02:58:14;;;;;;;9.18;6.90;;;;;;;3.56;100.00;100730.25;4991629;28;20508;-71
2023/03/24 03:00:58;;;;;;;9.85;7.55;;;;;;;2.95;100.00;100701.28;4991436;28;20026;-71
2023/03/24 03:03:37;;;;;;;9.57;7.28;;;;;;;2.70;100.00;100701.19;4991159;28;20046;-72
2023/03/24 03:06:17;;;;;;;15.80;9.73;;;;;;;2.97;100.00;100768.59;4974727;28;20598;-71
2023/03/24 03:08:46;;;;;;;37.03;19.20;;;;;;;2.72;100.00;100768.50;4991222;28;20624;-71
2023/03/24 03:11:14;;;;;;;22.98;13.80;;;;;;;2.66;100.00;100743.44;4959185;28;20559;-71
2023/03/24 03:13:47;;;;;;;23.33;12.75;;;;;;;2.98;100.00;100765.28;4991069;28;20133;-71
2023/03/24 03:16:20;;;;;;;19.42;12.43;;;;;;;3.11;100.00;100768.72;4958578;28;20108;-71
2023/03/24 03:18:54;;;;;;;13.45;10.13;;;;;;;3.27;100.00;100761.38;4990665;28;20096;-71
2023/03/24 03:21:23;;;;;;;47.30;23.02;;;;;;;3.30;100.00;100751.41;5002198;28;20041;-72
2023/03/24 03:23:55;;;;;;;20.67;11.65;;;;;;;3.10;100.00;100742.31;5032865;28;20446;-72
2023/03/24 03:26:25;;;;;;;19.10;9.70;;;;;;;3.22;100.00;100766.13;5032296;28;20112;-73
2023/03/24 03:28:56;;;;;;;15.70;9.57;;;;;;;3.12;100.00;100737.34;5032330;28;20021;-71
2023/03/24 03:31:34;;;;;;;17.00;10.95;;;;;;;3.45;100.00;100781.31;5032675;28;20029;-71
2023/03/24 03:34:08;;;;;;;26.75;15.10;;;;;;;3.58;100.00;100783.06;5032881;28;20480;-71
2023/03/24 03:36:49;;;;;;;25.92;13.70;;;;;;;3.60;100.00;100761.97;5032374;28;20025;-71
2023/03/24 03:39:45;;;;;;;17.02;9.38;;;;;;;3.71;100.00;100776.38;5032334;28;20029;-72
2023/03/24 03:42:11;;;;;;;15.82;8.40;;;;;;;3.59;100.00;100777.16;5032804;28;20037;-71
2023/03/24 03:44:36;;;;;;;12.13;7.95;;;;;;;3.55;100.00;100773.50;5032267;28;20079;-71
2023/03/24 03:47:02;;;;;;;14.40;8.13;;;;;;;3.35;100.00;100762.81;5032272;28;20475;-71
2023/03/24 03:49:28;;;;;;;16.75;8.10;;;;;;;3.18;100.00;100766.72;5032268;28;20033;-71
2023/03/24 03:51:54;;;;;;;12.60;8.07;;;;;;;2.94;100.00;100753.09;5026578;28;20045;-71
2023/03/24 03:54:22;;;;;;;18.67;8.55;;;;;;;2.87;100.00;100743.22;5029215;28;20018;-71
2023/03/24 03:56:49;;;;;;;15.20;8.10;;;;;;;2.75;100.00;100704.97;5032532;28;20041;-71
2023/03/24 03:59:32;;;;;;;15.52;7.68;;;;;;;2.91;100.00;100723.13;5032302;28;20025;-71
2023/03/24 04:02:12;;;;;;;20.67;7.50;;;;;;;2.70;100.00;100694.44;5032226;28;20029;-72
2023/03/24 04:04:43;;;;;;;30.55;9.52;;;;;;;2.77;100.00;100715.25;5031186;28;20505;-73
2023/03/24 04:07:22;;;;;;;31.58;8.73;;;;;;;2.56;100.00;100707.84;5031980;28;20045;-73
2023/03/24 04:10:20;;;;;;;41.05;9.43;;;;;;;2.75;100.00;100720.25;5031766;28;20099;-72
2023/03/24 04:13:15;;;;;;;24.50;9.18;;;;;;;2.92;100.00;100726.59;4989559;28;20069;-72
2023/03/24 04:15:49;;;;;;;36.15;8.27;;;;;;;2.71;100.00;100692.78;4990030;28;20034;-72
2023/03/24 04:18:30;;;;;;;41.42;9.57;;;;;;;2.86;100.00;100742.31;4989734;28;20034;-72
2023/03/24 04:21:05;;;;;;;40.05;9.38;;;;;;;2.71;100.00;100737.00;4989790;28;20579;-72
2023/03/24 04:23:40;;;;;;;27.20;9.82;;;;;;;2.86;100.00;100736.34;4989922;28;20048;-72
2023/03/24 04:26:25;;;;;;;36.28;10.88;;;;;;;2.98;100.00;100733.78;4988878;28;20042;-72
2023/03/24 04:29:05;;;;;;;21.05;9.98;;;;;;;3.02;100.00;100726.47;4989962;28;20061;-72
2023/03/24 04:31:33;;;;;;;49.63;10.05;;;;;;;3.04;100.00;100750.41;4988901;28;20512;-72
2023/03/24 04:34:12;;;;;;;28.50;9.73;;;;;;;2.85;100.00;100729.47;4988694;28;20031;-72
2023/03/24 04:36:43;;;;;;;26.48;11.18;;;;;;;3.07;100.00;100748.06;4989197;28;20764;-72
2023/03/24 04:39:17;;;;;;;35.10;11.27;;;;;;;2.67;100.00;100656.00;4989317;28;20754;-73
2023/03/24 04:41:44;;;;;;;47.90;10.88;;;;;;;3.22;100.00;100749.97;4989183;28;20069;-72
2023/03/24 04:44:11;;;;;;;44.38;10.50;;;;;;;3.15;100.00;100730.75;4989229;28;20054;-72
2023/03/24 04:46:38;;;;;;;33.05;11.23;;;;;;;3.25;100.00;100739.94;4989241;28;20412;-71
2023/03/24 04:49:04;;;;;;;52.63;10.80;;;;;;;3.29;100.00;100744.50;5000195;28;20181;-71
2023/03/24 04:51:30;;;;;;;56.90;11.57;;;;;;;3.03;100.00;100707.84;5030902;28;20114;-71
2023/03/24 04:53:56;;;;;;;24.30;9.02;;;;;;;3.10;100.00;100732.09;5044982;28;20041;-71
2023/03/24 04:56:53;;;;;;;24.13;9.75;;;;;;;3.18;100.00;100751.41;5030562;28;20504;-71
2023/03/24 04:59:20;;;;;;;31.13;10.35;;;;;;;3.08;100.00;100734.56;4969554;28;20133;-71
2023/03/24 05:01:48;;;;;;;44.97;11.15;;;;;;;2.88;100.00;100714.41;4965583;28;20520;-70
2023/03/24 05:04:15;;;;;;;43.35;10.90;;;;;;;3.19;100.00;100765.94;4966325;28;20045;-73
2023/03/24 05:06:40;;;;;;;58.30;11.77;;;;;;;3.29;100.00;100759.81;4969801;28;20097;-72
2023/03/24 05:09:06;;;;;;;31.73;9.40;;;;;;;3.34;100.00;100762.69;4969267;28;20030;-73
2023/03/24 05:11:32;;;;;;;35.08;11.40;;;;;;;3.38;100.00;100763.00;4969506;28;20104;-74
2023/03/24 05:13:57;;;;;;;41.35;10.68;;;;;;;3.42;100.00;100766.66;4969271;28;20067;-72
2023/03/24 05:16:23;;;;;;;89.95;13.18;;;;;;;3.49;100.00;100762.88;4968231;28;20046;-73
2023/03/24 05:18:48;;;;;;;35.63;11.20;;;;;;;3.46;100.00;100758.44;4966908;28;20552;-72
2023/03/24 05:21:14;;;;;;;46.72;10.90;;;;;;;3.54;100.00;100762.44;4969276;28;20062;-72
2023/03/24 05:23:39;;;;;;;36.33;10.75;;;;;;;3.71;100.00;100768.72;4968884;28;20624;-72
2023/03/24 05:26:05;;;;;;;36.08;11.73;;;;;;;3.82;100.00;100772.00;4969290;28;20026;-72
2023/03/24 05:28:31;;;;;;;60.42;13.02;;;;;;;3.82;100.00;100768.56;4969618;28;20515;-77
2023/03/24 05:31:00;;;;;;;72.05;12.88;;;;;;;3.87;100.00;100785.09;4969239;28;20128;-74
2023/03/24 05:33:26;;;;;;;70.65;12.80;;;;;;;3.95;100.00;100790.72;4969211;28;20081;-75
2023/03/24 05:35:52;;;;;;;86.80;13.98;;;;;;;3.87;100.00;100790.19;4993140;28;20053;-70
2023/03/24 05:38:17;;;;;;;61.50;13.80;;;;;;;3.80;100.00;100788.00;5029440;28;20041;-73
2023/03/24 05:40:43;;;;;;;60.80;13.98;;;;;;;3.82;100.00;100796.66;5028753;28;20549;-72
2023/03/24 05:43:11;;;;;;;78.57;16.15;;;;;;;3.53;100.00;100765.75;5030286;28;20484;-71
2023/03/24 05:45:37;;;;;;;88.85;17.00;;;;;;;3.67;100.00;100799.91;5030875;28;20037;-69
2023/03/24 05:48:03;;;;;;;92.45;17.00;;;;;;;3.58;100.00;100801.81;5030298;28;20128;-70
2023/03/24 05:50:28;;;;;;;131.57;18.77;;;;;;;3.60;100.00;100807.03;5030449;28;20104;-71
2023/03/24 05:52:54;;;;;;;76.78;17.48;;;;;;;3.46;100.00;100781.41;5030500;28;20025;-71
2023/03/24 05:55:20;;;;;;;80.13;17.95;;;;;;;3.70;100.00;100814.53;5030656;28;20109;-70
2023/03/24 05:57:46;;;;;;;79.45;19.10;;;;;;;3.63;100.00;100818.34;5030630;28;20036;-70
2023/03/24 06:00:16;;;;;;;78.15;18.27;;;;;;;3.45;100.00;100830.72;5030696;28;20029;-70
2023/03/24 06:02:43;;;;;;;53.28;18.55;;;;;;;2.92;100.00;100786.13;5030018;28;20029;-70
2023/03/24 06:05:09;;;;;;;97.18;22.17;;;;;;;3.14;100.00;100818.31;5030254;28;20034;-70
2023/03/24 06:07:39;;;;;;;112.15;24.23;;;;;;;3.33;100.00;100814.53;5030699;28;20029;-70
2023/03/24 06:10:06;;;;;;;110.43;24.88;;;;;;;3.45;100.00;100812.84;5030492;28;20037;-70
2023/03/24 06:12:32;;;;;;;90.80;24.75;;;;;;;3.31;100.00;100811.84;5044918;28;20072;-70
2023/03/24 06:14:59;;;;;;;133.20;28.02;;;;;;;3.47;100.00;100826.59;5030725;28;20033;-70
2023/03/24 06:17:27;;;;;;;76.65;26.25;;;;;;;3.24;100.00;100785.00;5030381;28;20028;-70
2023/03/24 06:19:53;;;;;;;89.25;26.17;;;;;;;3.31;100.00;100824.59;5029722;28;20454;-71
2023/03/24 06:22:19;;;;;;;79.70;23.75;;;;;;;3.33;100.00;100828.16;5028313;28;20045;-70
2023/03/24 06:24:48;;;;;;;96.97;26.35;;;;;;;3.51;100.00;100830.25;5030698;28;20029;-70
2023/03/24 06:27:14;;;;;;;124.82;28.52;;;;;;;3.67;100.00;100829.66;5030390;28;20033;-70
2023/03/24 06:29:43;;;;;;;136.38;26.85;;;;;;;3.83;100.00;100839.28;5030268;28;20087;-70
2023/03/24 06:32:09;;;;;;;81.25;26.73;;;;;;;3.97;100.00;100836.00;5030734;28;20032;-70
2023/03/24 06:34:36;;;;;;;124.57;25.83;;;;;;;3.90;100.00;100831.28;5030525;28;20121;-70
2023/03/24 06:37:02;;;;;;;178.13;27.33;;;;;;;4.16;100.00;100848.41;5030520;28;20026;-70
2023/03/24 06:39:27;;;;;;;119.72;27.70;;;;;;;4.22;100.00;100840.25;5030067;28;20499;-70
2023/03/24 06:41:53;;;;;;;137.00;30.85;;;;;;;4.26;100.00;100839.72;5030127;28;20026;-70
2023/03/24 06:44:18;;;;;;;73.78;30.67;;;;;;;4.40;100.00;100847.41;5029317;28;20418;-71
2023/03/24 06:46:44;;;;;;;76.35;33.20;;;;;;;4.60;100.00;100836.88;5029983;28;20039;-71
2023/03/24 06:49:10;;;;;;;166.50;33.70;;;;;;;4.72;100.00;100838.47;5030321;28;20026;-70
2023/03/24 06:51:36;;;;;;;152.07;31.52;;;;;;;4.81;100.00;100837.41;5030325;28;20035;-70
2023/03/24 06:54:02;;;;;;;91.50;31.35;;;;;;;4.90;100.00;100831.09;5026617;28;20026;-70
2023/03/24 06:56:27;;;;;;;89.47;31.83;;;;;;;5.03;100.00;100836.25;5023809;28;20084;-69
2023/03/24 06:58:53;;;;;;;66.13;28.13;;;;;;;5.11;100.00;100834.16;5029771;28;20029;-72
2023/03/24 07:01:19;;;;;;;70.65;29.90;;;;;;;5.15;100.00;100826.81;5028361;28;20064;-72
2023/03/24 07:03:44;;;;;;;75.72;32.85;;;;;;;5.25;100.00;100843.66;5017393;28;20046;-72
2023/03/24 07:06:10;;;;;;;69.85;31.63;;;;;;;5.16;100.00;100799.56;5027724;28;20116;-71
2023/03/24 07:08:36;;;;;;;117.28;32.15;;;;;;;5.43;100.00;100845.59;5029158;28;20030;-74
2023/03/24 07:11:02;;;;;;;94.57;32.75;;;;;;;5.53;100.00;100845.38;5004863;28;20099;-72
2023/03/24 07:13:48;;;;;;;105.07;31.50;;;;;;;5.57;100.00;100839.69;5029842;28;20112;-72
2023/03/24 07:16:14;;;;;;;76.47;32.00;;;;;;;5.54;100.00;100834.38;4961903;28;20034;-73
2023/03/24 07:18:39;;;;;;;75.53;32.42;;;;;;;5.52;100.00;100830.84;5010631;28;20750;-73
2023/03/24 07:21:05;;;;;;;73.82;32.42;;;;;;;5.67;100.00;100836.03;5010209;28;20053;-73
2023/03/24 07:23:31;;;;;;;79.80;31.42;;;;;;;5.48;100.00;100822.06;5011003;28;20034;-73
2023/03/24 07:25:57;;;;;;;70.25;32.67;;;;;;;5.37;100.00;100834.97;5014411;28;20042;-74
2023/03/24 07:28:23;;;;;;;71.38;36.42;;;;;;;5.55;100.00;100841.25;5012602;28;20057;-70
2023/03/24 07:30:48;;;;;;;78.10;34.42;;;;;;;5.51;100.00;100839.31;5013682;28;20515;-76
2023/03/24 07:33:14;;;;;;;70.97;34.00;;;;;;;5.48;100.00;100814.41;5010744;28;20103;-75
2023/03/24 07:35:39;;;;;;;81.22;38.10;;;;;;;5.61;100.00;100821.16;5010914;28;20467;-75
2023/03/24 07:38:06;;;;;;;73.40;37.90;;;;;;;5.76;100.00;100807.53;5010363;28;20504;-73
2023/03/24 07:40:33;;;;;;;74.30;38.03;;;;;;;6.03;100.00;100820.28;5010318;28;20080;-73
2023/03/24 07:43:00;;;;;;;84.43;40.33;;;;;;;6.11;100.00;100814.84;4993912;28;20046;-72
2023/03/24 07:45:27;;;;;;;68.45;37.90;;;;;;;5.95;100.00;100771.97;4971017;28;20047;-71
2023/03/24 07:47:53;;;;;;;73.95;36.03;;;;;;;6.15;100.00;100778.34;5001610;28;20132;-71
2023/03/24 07:50:19;;;;;;;67.10;35.38;;;;;;;6.01;100.00;100752.66;5010571;28;20117;-73
2023/03/24 07:52:48;;;;;;;68.47;36.28;;;;;;;6.27;100.00;100797.84;5010543;28;20037;-72
2023/03/24 07:55:14;;;;;;;68.68;40.28;;;;;;;6.51;100.00;100808.63;5010431;28;20045;-71
2023/03/24 07:57:47;;;;;;;72.65;41.42;;;;;;;6.58;100.00;100797.03;5008182;28;20038;-72
2023/03/24 08:00:19;;;;;;;73.07;42.88;;;;;;;6.57;100.00;100800.44;5007860;28;20567;-70
2023/03/24 08:02:47;;;;;;;67.78;39.78;;;;;;;6.59;100.00;100794.59;5008605;28;20037;-70
2023/03/24 08:05:13;;;;;;;66.30;40.63;;;;;;;6.75;100.00;100796.38;5010075;28;20045;-70
2023/03/24 08:07:43;;;;;;;73.72;40.88;;;;;;;6.88;100.00;100787.69;5009173;28;20048;-69
2023/03/24 08:10:12;;;;;;;;;;;;;;;7.07;100.00;100799.88;5010250;28;20100;-70
2023/03/24 08:12:38;;;;;;;72.15;42.10;;;;;;;7.24;100.00;100798.25;5009859;28;19913;-70
2023/03/24 08:15:06;;;;;;;74.47;44.97;;;;;;;7.31;100.00;100796.91;5010012;28;20029;-70
2023/03/24 08:17:32;;;;;;;72.03;44.90;;;;;;;7.36;100.00;100795.47;5030849;28;20049;-70
2023/03/24 08:19:58;;;;;;;70.82;43.15;;;;;;;7.31;100.00;100789.19;5031802;28;20529;-69
2023/03/24 08:22:23;;;;;;;75.15;43.95;;;;;;;7.53;100.00;100793.81;5027176;28;20037;-70
2023/03/24 08:24:49;;;;;;;71.22;44.67;;;;;;;7.63;100.00;100791.75;5031300;28;20036;-69
2023/03/24 08:27:15;;;;;;;73.18;43.53;;;;;;;7.37;100.00;100709.03;5031829;28;20025;-69
2023/03/24 08:29:41;;;;;;;72.85;42.65;;;;;;;7.93;100.00;100775.38;5022151;28;20029;-69
2023/03/24 08:32:06;;;;;;;63.25;40.53;;;;;;;7.99;100.00;100735.38;5031665;28;20105;-69
2023/03/24 08:34:33;;;;;;;67.72;42.15;;;;;;;8.37;100.00;100769.88;5031905;28;20124;-70
2023/03/24 08:36:58;;;;;;;65.97;43.00;;;;;;;8.53;100.00;100764.72;5031801;28;20503;-70
2023/03/24 08:39:24;;;;;;;62.42;40.70;;;;;;;8.71;100.00;100771.59;5031294;28;20039;-69
2023/03/24 08:41:49;;;;;;;66.30;42.75;;;;;;;8.89;100.00;100766.47;5031755;28;20116;-70
2023/03/24 08:44:15;;;;;;;61.80;42.20;;;;;;;9.11;100.00;100767.50;5031665;28;20465;-70
2023/03/24 08:46:41;;;;;;;63.30;39.90;;;;;;;9.25;100.00;100761.31;5031659;28;20501;-70
2023/03/24 08:49:07;;;;;;;56.35;38.17;;;;;;;9.36;100.00;100754.97;5031540;28;20018;-70
2023/03/24 08:51:33;;;;;;;57.72;38.72;;;;;;;9.62;100.00;100754.41;5031316;28;20033;-71
2023/03/24 08:54:00;;;;;;;55.00;37.88;;;;;;;9.74;100.00;100742.06;5031112;28;20084;-71
2023/03/24 08:56:26;;;;;;;54.42;38.05;;;;;;;9.98;100.00;100754.28;5031639;28;20049;-71
2023/03/24 08:58:52;;;;;;;57.45;38.38;;;;;;;10.17;100.00;100751.69;5022109;28;20076;-70
2023/03/24 09:01:22;;;;;;;51.38;37.20;;;;;;;10.35;100.00;100749.03;5030758;28;20395;-70
2023/03/24 09:03:47;;;;;;;52.50;36.90;;;;;;;10.52;100.00;100747.16;5016344;28;20018;-71
2023/03/24 09:06:13;;;;;;;50.72;35.70;;;;;;;10.74;100.00;100742.91;5031641;28;20115;-70
2023/03/24 09:08:39;;;;;;;48.90;36.47;;;;;;;10.85;100.00;100727.81;5030885;28;20037;-71
2023/03/24 09:11:05;;;;;;;54.28;40.58;;;;;;;11.04;100.00;100739.78;5031572;28;20410;-71
2023/03/24 09:13:31;;;;;;;51.88;38.25;;;;;;;11.20;100.00;100740.34;5030697;28;20060;-71
2023/03/24 09:15:59;;;;;;;47.00;36.92;;;;;;;11.34;100.00;100731.44;5030907;28;20602;-70
2023/03/24 09:18:25;;;;;;;47.28;36.25;;;;;;;11.33;100.00;100709.88;5031155;28;20129;-71
2023/03/24 09:20:51;;;;;;;50.83;36.30;;;;;;;11.68;100.00;100724.94;5030677;28;20049;-71
2023/03/24 09:23:17;;;;;;;49.78;34.83;;;;;;;11.61;100.00;100684.16;5030113;28;20057;-71
2023/03/24 09:25:43;;;;;;;46.15;34.38;;;;;;;11.86;100.00;100700.56;5030919;28;20105;-71
2023/03/24 09:28:08;;;;;;;45.90;33.25;;;;;;;12.00;100.00;100691.63;5031028;28;20116;-70
2023/03/24 09:30:34;;;;;;;44.70;33.88;;;;;;;12.29;100.00;100717.59;5030430;28;20048;-71
2023/03/24 09:33:00;;;;;;;41.33;32.22;;;;;;;12.50;100.00;100722.63;5030603;28;20025;-71
2023/03/24 09:35:26;;;;;;;40.78;30.90;;;;;;;12.62;100.00;100707.50;5030412;28;20479;-71
2023/03/24 09:37:53;;;;;;;39.78;30.88;;;;;;;12.73;100.00;100713.00;5029946;28;20026;-70
2023/03/24 09:40:31;;;;;;;38.15;29.02;;;;;;;12.71;100.00;100670.63;5030576;28;20032;-70
2023/03/24 09:43:02;;;;;;;36.10;27.92;;;;;;;13.09;100.00;100716.69;5030689;28;20040;-70
2023/03/24 09:45:30;;;;;;;36.55;27.02;;;;;;;13.23;100.00;100712.81;5030402;28;20025;-72
2023/03/24 09:48:01;;;;;;;33.20;25.63;;;;;;;13.37;100.00;100694.19;5030217;28;20030;-71
2023/03/24 09:50:34;;;;;;;32.30;25.25;;;;;;;13.61;100.00;100701.84;5030265;28;20109;-72
2023/03/24 09:53:06;;;;;;;32.33;24.42;;;;;;;13.84;100.00;100709.38;5028181;28;20472;-71
2023/03/24 09:55:38;;;;;;;30.48;23.70;;;;;;;13.93;100.00;100704.41;5029792;28;20144;-72
2023/03/24 09:58:07;;;;;;;27.45;23.10;;;;;;;14.13;100.00;100698.88;5028442;28;20039;-72
2023/03/24 10:00:33;;;;;;;25.38;21.02;;;;;;;14.19;100.00;100699.03;5029765;28;20037;-70
2023/03/24 10:03:20;;;;;;;30.25;23.45;;;;;;;14.41;100.00;100695.28;5030042;28;20052;-70
2023/03/24 10:06:03;;;;;;;23.83;18.35;;;;;;;14.58;100.00;100700.91;5029140;28;20510;-73
2023/03/24 10:08:55;;;;;;;22.58;17.60;;;;;;;14.67;100.00;100698.53;5027900;28;20059;-70
2023/03/24 10:11:30;;;;;;;16.90;14.02;;;;;;;14.85;100.00;100689.41;4985708;28;20175;-70
2023/03/24 10:14:11;;;;;;;15.50;13.07;;;;;;;14.92;100.00;100683.53;4988350;28;20030;-70
2023/03/24 10:16:52;;;;;;;18.25;14.38;;;;;;;15.06;100.00;100677.75;4988348;28;20042;-72
2023/03/24 10:20:02;;;;;;;17.30;14.55;;;;;;;15.15;100.00;100676.25;4987822;28;20078;-74
2023/03/24 10:22:36;;;;;;;17.33;14.02;;;;;;;15.40;98.72;100673.25;4930333;29;20052;-69
2023/03/24 10:25:20;;;;;;;19.45;14.52;;;;;;;15.59;98.47;100664.97;4930832;29;20453;-69
2023/03/24 10:27:53;;;;;;;16.60;12.73;;;;;;;15.52;94.60;100624.06;4929916;29;20122;-69
2023/03/24 10:30:23;;;;;;;16.35;11.98;;;;;;;15.87;96.72;100657.72;4930502;29;20028;-70
2023/03/24 10:32:49;;;;;;;14.30;11.48;;;;;;;16.09;94.21;100660.72;4930167;29;20047;-71
2023/03/24 10:35:20;;;;;;;14.20;9.73;;;;;;;16.14;90.75;100657.34;4930029;29;20498;-71
2023/03/24 10:37:45;;;;;;;14.98;10.98;;;;;;;16.06;89.02;100643.28;4929803;29;20058;-73
2023/03/24 10:40:19;;;;;;;13.25;10.20;;;;;;;16.07;90.01;100657.19;4929573;29;20482;-72
2023/03/24 10:42:47;;;;;;;11.48;9.55;;;;;;;16.12;88.19;100660.75;4930348;29;20113;-72
2023/03/24 10:45:18;;;;;;;10.98;9.52;;;;;;;16.04;85.36;100637.19;4929513;29;20034;-71
2023/03/24 10:47:46;;;;;;;11.65;9.60;;;;;;;16.25;85.47;100647.09;4938852;28;20066;-71
2023/03/24 10:50:12;;;;;;;8.40;6.68;;;;;;;16.35;83.76;100642.91;4972023;28;20034;-71
2023/03/24 10:52:44;;;;;;;9.27;7.20;;;;;;;16.50;83.50;100639.69;4972193;28;20046;-70
2023/03/24 10:55:15;;;;;;;10.10;8.48;;;;;;;16.67;84.98;100642.50;4972487;28;20030;-70
2023/03/24 10:57:49;;;;;;;10.60;8.65;;;;;;;16.79;83.86;100629.66;4972348;28;20039;-71
2023/03/24 11:00:36;;;;;;;11.65;8.60;;;;;;;17.04;83.70;100631.78;4988674;28;20056;-70
2023/03/24 11:03:11;;;;;;;11.25;9.15;;;;;;;17.19;85.86;100620.66;5032742;28;20108;-70
2023/03/24 11:05:39;;;;;;;12.82;10.02;;;;;;;17.21;83.58;100626.75;5033586;28;20452;-69
2023/03/24 11:08:27;;;;;;;11.95;9.85;;;;;;;17.38;85.65;100619.13;5033734;28;20026;-69
2023/03/24 11:10:54;;;;;;;13.93;9.52;;;;;;;17.42;82.66;100615.69;5033509;28;20049;-70
2023/03/24 11:13:27;;;;;;;12.52;8.40;;;;;;;17.52;81.97;100599.28;5032420;28;20029;-77
2023/03/24 11:16:14;;;;;;;9.65;7.82;;;;;;;17.70;81.04;100595.97;5033184;28;20025;-69
2023/03/24 11:19:02;;;;;;;9.35;7.57;;;;;;;17.91;81.43;100605.75;5033369;28;20086;-69
2023/03/24 11:21:30;;;;;;;7.90;6.70;;;;;;;17.95;81.74;100598.84;5033275;28;20056;-70
2023/03/24 11:24:18;;;;;;;9.73;7.00;;;;;;;18.10;79.17;100592.88;5031555;28;20021;-69
2023/03/24 11:27:03;;;;;;;9.25;6.97;;;;;;;18.24;76.41;100590.34;5031033;28;20564;-69